Time;durP1;ratioP1;P1;durP2;ratioP2;P2;SDS_P1;SDS_P2;PMS_P1;PMS_P2;Temp;Humidity;BMP_temperature;BMP_pressure;BME280_temperature;BME280_humidity;BME280_pressure;Samples;Min_cycle;Max_cycle;Signal;HPM_P1;HPM_P2
2024/04/13 00:02:08;;;;;;;0.30;0.28;;;13.90;99.90;;;;;;5329259;26;20005;-83
2024/04/13 00:04:35;;;;;;;0.30;0.20;;;13.90;99.90;;;;;;5328896;26;20016;-83
2024/04/13 00:07:02;;;;;;;1.05;0.30;;;13.90;99.90;;;;;;5326319;26;20012;-83
2024/04/13 00:09:31;;;;;;;0.38;0.30;;;13.90;99.90;;;;;;5362238;26;20000;-81
2024/04/13 00:11:58;;;;;;;0.20;0.20;;;13.90;99.90;;;;;;5332914;26;20041;-83
2024/04/13 00:14:25;;;;;;;0.30;0.30;;;13.90;99.90;;;;;;5361769;26;20008;-83
2024/04/13 00:16:52;;;;;;;0.20;0.20;;;13.90;99.90;;;;;;5362441;26;20009;-84
2024/04/13 00:19:18;;;;;;;0.20;0.20;;;13.90;99.90;;;;;;5363944;26;20659;-85
2024/04/13 00:21:45;;;;;;;0.20;0.20;;;13.90;99.90;;;;;;5332639;26;20476;-83
2024/04/13 00:24:12;;;;;;;0.20;0.20;;;13.80;99.90;;;;;;5333391;26;20359;-83
2024/04/13 00:26:40;;;;;;;0.30;0.20;;;13.80;99.90;;;;;;5333887;26;20016;-83
2024/04/13 00:29:07;;;;;;;0.47;0.35;;;13.80;99.90;;;;;;5364549;26;20413;-83
2024/04/13 00:31:34;;;;;;;0.60;0.40;;;13.80;99.90;;;;;;5363767;26;20004;-82
2024/04/13 00:34:04;;;;;;;0.10;0.10;;;13.80;99.90;;;;;;5340739;26;20536;-82
2024/04/13 00:36:35;;;;;;;0.57;0.30;;;13.80;99.90;;;;;;5339790;26;20042;-83
2024/04/13 00:39:04;;;;;;;0.52;0.38;;;13.80;99.90;;;;;;5365195;26;20014;-83
2024/04/13 00:41:32;;;;;;;0.13;0.13;;;13.80;99.90;;;;;;5335604;26;20593;-83
2024/04/13 00:44:00;;;;;;;0.30;0.20;;;13.80;99.90;;;;;;5334378;26;20040;-83
2024/04/13 00:46:31;;;;;;;0.50;0.45;;;13.80;99.90;;;;;;5372082;26;20013;-83
2024/04/13 00:49:00;;;;;;;0.60;0.22;;;13.70;99.90;;;;;;5377192;26;20011;-83
2024/04/13 00:51:31;;;;;;;0.50;0.30;;;13.70;99.90;;;;;;5375112;26;20079;-83
2024/04/13 00:53:59;;;;;;;0.30;0.17;;;13.70;99.90;;;;;;5405567;26;19999;-83
2024/04/13 00:56:26;;;;;;;0.63;0.30;;;13.70;99.90;;;;;;5348647;26;20020;-82
2024/04/13 00:58:56;;;;;;;0.30;0.30;;;13.70;99.90;;;;;;5358946;26;19991;-82
2024/04/13 01:01:24;;;;;;;0.57;0.38;;;13.70;99.90;;;;;;5311203;26;20616;-83
2024/04/13 01:03:51;;;;;;;0.30;0.30;;;13.70;99.90;;;;;;5369417;26;20012;-83
2024/04/13 01:06:18;;;;;;;0.20;0.20;;;13.70;99.90;;;;;;5338278;26;20027;-82
2024/04/13 01:08:46;;;;;;;0.30;0.30;;;13.70;99.90;;;;;;5313162;26;20447;-83
2024/04/13 01:11:13;;;;;;;0.30;0.30;;;13.70;99.90;;;;;;5370349;26;20247;-83
2024/04/13 01:13:41;;;;;;;0.30;0.20;;;13.70;99.90;;;;;;5372129;26;20712;-82
2024/04/13 01:16:08;;;;;;;0.55;0.32;;;13.70;99.90;;;;;;5314426;26;20014;-83
2024/04/13 01:18:35;;;;;;;0.43;0.25;;;13.70;99.90;;;;;;5371702;26;20004;-83
2024/04/13 01:21:04;;;;;;;0.20;0.20;;;13.70;99.90;;;;;;5314551;26;20050;-83
2024/04/13 01:23:32;;;;;;;0.38;0.38;;;13.70;99.90;;;;;;5343406;26;20574;-83
2024/04/13 01:25:59;;;;;;;0.52;0.40;;;13.70;99.90;;;;;;5343915;26;20076;-83
2024/04/13 01:28:29;;;;;;;0.13;0.13;;;13.70;99.90;;;;;;5296501;26;20007;-82
2024/04/13 01:30:58;;;;;;;0.40;0.28;;;13.70;99.90;;;;;;5374516;26;20740;-83
2024/04/13 01:33:25;;;;;;;0.52;0.43;;;13.70;99.90;;;;;;5347440;26;20123;-83
2024/04/13 01:35:58;;;;;;;0.30;0.30;;;13.70;99.90;;;;;;5341612;26;20012;-83
2024/04/13 01:38:25;;;;;;;0.30;0.30;;;13.70;99.90;;;;;;5370589;26;20015;-83
2024/04/13 01:40:52;;;;;;;0.32;0.32;;;13.70;99.90;;;;;;5312696;26;20006;-82
2024/04/13 01:43:20;;;;;;;0.13;0.13;;;13.60;99.90;;;;;;5333437;26;20003;-82
2024/04/13 01:45:48;;;;;;;0.25;0.20;;;13.60;99.90;;;;;;5376275;26;20080;-82
2024/04/13 01:48:18;;;;;;;1.02;0.57;;;13.60;99.90;;;;;;5407693;26;20743;-83
2024/04/13 01:50:46;;;;;;;0.40;0.40;;;13.60;99.90;;;;;;5376015;26;20007;-83
2024/04/13 01:53:13;;;;;;;0.15;0.13;;;13.60;99.90;;;;;;5346952;26;20016;-82
2024/04/13 01:55:40;;;;;;;0.20;0.20;;;13.50;99.90;;;;;;5371153;26;20000;-83
2024/04/13 01:58:07;;;;;;;0.30;0.30;;;13.50;99.90;;;;;;5313037;26;20085;-83
2024/04/13 02:00:37;;;;;;;0.38;0.30;;;13.50;99.90;;;;;;5312340;26;20083;-83
2024/04/13 02:03:04;;;;;;;0.40;0.35;;;13.40;99.90;;;;;;5313166;26;20000;-82
2024/04/13 02:05:34;;;;;;;0.30;0.30;;;13.40;99.90;;;;;;5286243;26;20078;-82
2024/04/13 02:08:03;;;;;;;0.50;0.50;;;13.40;99.90;;;;;;5347081;26;20392;-83
2024/04/13 02:10:31;;;;;;;0.20;0.20;;;13.30;99.90;;;;;;5347045;26;20388;-83
2024/04/13 02:12:58;;;;;;;0.77;0.43;;;13.30;99.90;;;;;;5347529;26;20011;-83
2024/04/13 02:15:25;;;;;;;0.32;0.32;;;13.30;99.90;;;;;;5346105;26;20015;-82
2024/04/13 02:17:52;;;;;;;0.35;0.22;;;13.20;99.90;;;;;;5284197;26;20447;-83
2024/04/13 02:20:20;;;;;;;0.30;0.30;;;13.20;99.90;;;;;;5311410;26;20018;-82
2024/04/13 02:22:47;;;;;;;0.38;0.32;;;13.10;99.90;;;;;;5362180;26;20060;-83
2024/04/13 02:25:14;;;;;;;0.30;0.30;;;13.20;99.90;;;;;;5411237;26;20098;-82
2024/04/13 02:27:41;;;;;;;1.38;0.40;;;13.10;99.90;;;;;;5319336;26;20006;-82
2024/04/13 02:30:09;;;;;;;0.70;0.35;;;13.10;99.90;;;;;;5318870;26;20051;-82
2024/04/13 02:32:37;;;;;;;0.30;0.25;;;13.10;99.90;;;;;;5382941;26;20056;-83
2024/04/13 02:35:07;;;;;;;0.45;0.30;;;13.10;99.90;;;;;;5382987;26;20523;-83
2024/04/13 02:37:34;;;;;;;0.30;0.30;;;13.10;99.90;;;;;;5351260;26;19996;-83
2024/04/13 02:40:07;;;;;;;0.20;0.20;;;13.10;99.90;;;;;;5345919;26;20004;-83
2024/04/13 02:42:38;;;;;;;0.47;0.40;;;13.00;99.90;;;;;;5349587;26;20547;-83
2024/04/13 02:45:14;;;;;;;0.30;0.30;;;12.90;99.90;;;;;;5348327;26;20484;-83
2024/04/13 02:47:42;;;;;;;0.40;0.40;;;12.90;99.90;;;;;;5346529;26;20018;-81
2024/04/13 02:50:10;;;;;;;0.22;0.22;;;12.80;99.90;;;;;;5319013;26;20135;-83
2024/04/13 02:52:38;;;;;;;0.30;0.30;;;12.80;99.90;;;;;;5375277;26;20019;-83
2024/04/13 02:55:05;;;;;;;0.20;0.20;;;12.80;99.90;;;;;;5346271;26;20069;-83
2024/04/13 02:57:31;;;;;;;0.55;0.40;;;12.80;99.90;;;;;;5437661;26;20014;-83
2024/04/13 02:59:59;;;;;;;0.90;0.45;;;12.70;99.90;;;;;;5411066;26;20006;-83
2024/04/13 03:02:26;;;;;;;0.35;0.35;;;12.70;99.90;;;;;;5438061;26;20481;-82
2024/04/13 03:04:53;;;;;;;0.10;0.10;;;12.70;99.90;;;;;;5346814;26;20442;-82
2024/04/13 03:07:20;;;;;;;0.20;0.20;;;12.70;99.90;;;;;;5346014;26;20470;-83
2024/04/13 03:09:48;;;;;;;0.55;0.40;;;12.70;99.90;;;;;;5345759;26;20393;-83
2024/04/13 03:12:15;;;;;;;0.90;0.30;;;12.70;99.90;;;;;;5317470;26;20019;-83
2024/04/13 03:14:43;;;;;;;0.57;0.40;;;12.70;99.90;;;;;;5317998;26;20073;-83
2024/04/13 03:17:10;;;;;;;0.30;0.30;;;12.70;99.90;;;;;;5343089;26;20083;-83
2024/04/13 03:19:38;;;;;;;0.40;0.28;;;12.70;99.90;;;;;;5410504;26;20072;-83
2024/04/13 03:22:06;;;;;;;0.70;0.30;;;12.70;99.90;;;;;;5352421;26;20018;-83
2024/04/13 03:24:34;;;;;;;0.80;0.43;;;12.60;99.90;;;;;;5318147;26;20015;-81
2024/04/13 03:27:02;;;;;;;0.43;0.40;;;12.60;99.90;;;;;;5375189;26;20004;-83
2024/04/13 03:29:30;;;;;;;0.57;0.30;;;12.60;99.90;;;;;;5375281;26;20644;-83
2024/04/13 03:31:58;;;;;;;0.28;0.28;;;12.60;99.90;;;;;;5346427;26;20007;-83
2024/04/13 03:34:27;;;;;;;0.90;0.50;;;12.60;99.90;;;;;;5375116;26;20513;-83
2024/04/13 03:36:54;;;;;;;0.50;0.50;;;12.60;99.90;;;;;;5374411;26;20007;-83
2024/04/13 03:39:21;;;;;;;0.30;0.30;;;12.70;99.90;;;;;;5346464;26;20000;-82
2024/04/13 03:41:49;;;;;;;0.43;0.35;;;12.60;99.90;;;;;;5375192;26;20007;-83
2024/04/13 03:44:16;;;;;;;0.20;0.20;;;12.60;99.90;;;;;;5346424;26;19999;-82
2024/04/13 03:46:44;;;;;;;0.30;0.28;;;12.60;99.90;;;;;;5335689;26;20007;-83
2024/04/13 03:49:11;;;;;;;0.30;0.20;;;12.60;99.90;;;;;;5351680;26;20586;-82
2024/04/13 03:51:39;;;;;;;0.40;0.38;;;12.60;99.90;;;;;;5380950;26;20417;-83
2024/04/13 03:54:07;;;;;;;0.40;0.30;;;12.60;99.90;;;;;;5380681;26;19999;-83
2024/04/13 03:56:35;;;;;;;0.30;0.30;;;12.50;99.90;;;;;;5364275;26;20011;-83
2024/04/13 03:59:02;;;;;;;0.28;0.28;;;12.50;99.90;;;;;;5374381;26;20006;-83
2024/04/13 04:01:30;;;;;;;0.28;0.28;;;12.50;99.90;;;;;;5374753;26;20725;-82
2024/04/13 04:03:57;;;;;;;0.57;0.40;;;12.50;99.90;;;;;;5346754;26;20015;-83
2024/04/13 04:06:25;;;;;;;0.32;0.32;;;12.50;99.90;;;;;;5374363;26;20003;-83
2024/04/13 04:08:52;;;;;;;0.30;0.30;;;12.50;99.90;;;;;;5345910;26;20007;-83
2024/04/13 04:11:19;;;;;;;0.47;0.38;;;12.50;99.90;;;;;;5316982;26;20014;-84
2024/04/13 04:13:46;;;;;;;0.43;0.40;;;12.40;99.90;;;;;;5311757;26;20418;-84
2024/04/13 04:16:13;;;;;;;0.65;0.38;;;12.40;99.90;;;;;;5368127;26;20020;-83
2024/04/13 04:18:43;;;;;;;0.55;0.40;;;12.40;99.90;;;;;;5283374;26;20405;-84
2024/04/13 04:21:11;;;;;;;0.40;0.28;;;12.40;99.90;;;;;;5312146;26;20016;-84
2024/04/13 04:23:38;;;;;;;0.60;0.40;;;12.40;99.90;;;;;;5388340;26;20016;-83
2024/04/13 04:26:06;;;;;;;0.40;0.40;;;12.40;99.90;;;;;;5382992;26;20208;-84
2024/04/13 04:28:33;;;;;;;0.40;0.35;;;12.40;99.90;;;;;;5381570;26;20150;-83
2024/04/13 04:31:11;;;;;;;0.50;0.32;;;12.40;99.90;;;;;;5441341;26;20018;-84
2024/04/13 04:33:38;;;;;;;0.35;0.35;;;12.40;99.90;;;;;;5409966;26;20003;-84
2024/04/13 04:36:08;;;;;;;0.52;0.43;;;12.40;99.90;;;;;;5371212;26;20015;-84
2024/04/13 04:38:37;;;;;;;1.20;0.60;;;12.40;99.90;;;;;;5317997;26;20517;-84
2024/04/13 04:41:04;;;;;;;0.60;0.40;;;12.40;99.90;;;;;;5345377;26;20015;-84
2024/04/13 04:43:31;;;;;;;0.55;0.50;;;12.40;99.90;;;;;;5377150;26;20017;-84
2024/04/13 04:45:59;;;;;;;0.63;0.47;;;12.30;99.90;;;;;;5313705;26;20028;-84
2024/04/13 04:48:26;;;;;;;0.60;0.35;;;12.30;99.90;;;;;;5342319;26;20019;-83
2024/04/13 04:50:58;;;;;;;0.40;0.40;;;12.30;99.90;;;;;;5370807;26;20001;-84
2024/04/13 04:53:28;;;;;;;1.10;0.40;;;12.30;99.90;;;;;;5406009;26;20359;-84
2024/04/13 04:55:56;;;;;;;0.52;0.43;;;12.30;99.90;;;;;;5349063;26;20000;-84
2024/04/13 04:58:24;;;;;;;0.80;0.50;;;12.30;99.90;;;;;;5376760;26;20034;-84
2024/04/13 05:00:51;;;;;;;1.45;0.88;;;12.30;99.90;;;;;;5347875;26;20008;-84
2024/04/13 05:03:18;;;;;;;0.80;0.70;;;12.30;99.90;;;;;;5315102;26;20012;-84
2024/04/13 05:05:46;;;;;;;0.60;0.60;;;12.30;99.90;;;;;;5369037;26;20410;-84
2024/04/13 05:08:14;;;;;;;0.98;0.80;;;12.30;99.90;;;;;;5281818;26;20012;-84
2024/04/13 05:10:41;;;;;;;0.52;0.50;;;12.20;99.90;;;;;;5338130;26;20000;-84
2024/04/13 05:13:08;;;;;;;0.45;0.40;;;12.30;99.90;;;;;;5304125;26;19999;-83
2024/04/13 05:15:36;;;;;;;1.27;0.90;;;12.30;99.90;;;;;;5314612;26;20007;-84
2024/04/13 05:18:04;;;;;;;1.70;0.93;;;12.30;99.90;;;;;;5372335;26;20051;-84
2024/04/13 05:20:32;;;;;;;0.93;0.70;;;12.30;99.90;;;;;;5343575;26;20031;-84
2024/04/13 05:22:58;;;;;;;1.00;0.73;;;12.30;99.90;;;;;;5306459;26;20000;-84
2024/04/13 05:25:27;;;;;;;1.17;0.80;;;12.30;99.90;;;;;;5309151;26;20408;-84
2024/04/13 05:27:54;;;;;;;0.80;0.80;;;12.30;99.90;;;;;;5349496;26;20917;-84
2024/04/13 05:30:22;;;;;;;0.85;0.65;;;12.30;99.90;;;;;;5350552;26;20070;-84
2024/04/13 05:32:52;;;;;;;1.10;0.60;;;12.30;99.90;;;;;;5368080;26;20107;-84
2024/04/13 05:35:19;;;;;;;0.82;0.60;;;12.30;99.90;;;;;;5331483;26;20021;-84
2024/04/13 05:37:46;;;;;;;1.23;0.90;;;12.30;99.90;;;;;;5303422;26;20005;-83
2024/04/13 05:40:15;;;;;;;0.95;0.85;;;12.40;99.90;;;;;;5303788;26;20620;-83
2024/04/13 05:42:42;;;;;;;0.90;0.75;;;12.40;99.90;;;;;;5352306;26;20015;-83
2024/04/13 05:45:10;;;;;;;1.30;0.90;;;12.40;99.90;;;;;;5275425;26;20015;-85
2024/04/13 05:47:37;;;;;;;1.30;0.98;;;12.50;99.90;;;;;;5365451;26;20015;-86
2024/04/13 05:50:04;;;;;;;1.23;0.80;;;12.50;99.90;;;;;;5340534;26;19996;-86
2024/04/13 05:52:32;;;;;;;0.93;0.77;;;12.60;99.90;;;;;;5327865;26;20428;-86
2024/04/13 05:55:01;;;;;;;1.17;1.00;;;12.60;99.90;;;;;;5292587;26;20016;-86
2024/04/13 05:57:30;;;;;;;1.35;0.93;;;12.70;99.90;;;;;;5362606;26;20058;-86
2024/04/13 05:59:58;;;;;;;2.03;1.52;;;12.70;99.90;;;;;;5347062;26;20060;-86
2024/04/13 06:02:26;;;;;;;1.60;1.13;;;12.70;99.90;;;;;;5373128;26;20000;-86
2024/04/13 06:04:54;;;;;;;1.52;1.00;;;12.80;99.90;;;;;;5285239;26;20059;-86
2024/04/13 06:07:23;;;;;;;1.88;1.40;;;12.90;99.90;;;;;;5386144;26;20014;-86
2024/04/13 06:09:50;;;;;;;1.63;1.38;;;12.90;99.90;;;;;;5375910;26;20006;-85
2024/04/13 06:12:18;;;;;;;1.90;1.23;;;13.00;99.90;;;;;;5321535;26;20054;-84
2024/04/13 06:14:52;;;;;;;1.52;1.30;;;13.00;99.90;;;;;;5318092;26;20001;-85
2024/04/13 06:17:23;;;;;;;1.23;1.02;;;13.10;99.90;;;;;;5331865;26;20078;-85
2024/04/13 06:19:50;;;;;;;1.20;1.08;;;13.20;99.90;;;;;;5335777;26;20005;-84
2024/04/13 06:22:23;;;;;;;1.02;0.90;;;13.20;99.90;;;;;;5360031;26;20032;-84
2024/04/13 06:24:51;;;;;;;0.95;0.73;;;13.30;99.90;;;;;;5329882;26;20020;-84
2024/04/13 06:27:18;;;;;;;1.20;1.00;;;13.40;99.90;;;;;;5366784;26;20081;-85
2024/04/13 06:29:50;;;;;;;1.50;1.10;;;13.40;99.90;;;;;;5339559;26;20509;-85
2024/04/13 06:32:17;;;;;;;0.73;0.70;;;13.50;99.90;;;;;;5334097;26;20129;-86
2024/04/13 06:34:44;;;;;;;0.75;0.60;;;13.50;99.90;;;;;;5336758;26;20397;-78
2024/04/13 06:37:13;;;;;;;0.68;0.57;;;13.60;99.90;;;;;;5351772;26;20204;-92
2024/04/13 06:39:40;;;;;;;1.17;0.68;;;13.70;99.90;;;;;;5409644;26;20007;-91
2024/04/13 06:42:07;;;;;;;0.60;0.60;;;13.70;99.90;;;;;;5345100;26;19995;-91
2024/04/13 06:44:39;;;;;;;0.80;0.70;;;13.80;99.90;;;;;;5341275;26;20029;-92
2024/04/13 06:47:06;;;;;;;0.75;0.65;;;13.80;99.90;;;;;;5374802;26;20023;-91
2024/04/13 06:49:34;;;;;;;0.80;0.65;;;13.90;99.90;;;;;;5345937;26;20008;-91
2024/04/13 06:52:05;;;;;;;0.93;0.75;;;13.90;99.90;;;;;;5373979;26;20454;-91
2024/04/13 06:54:32;;;;;;;0.75;0.68;;;13.90;99.90;;;;;;5310815;26;20016;-91
2024/04/13 06:57:05;;;;;;;0.73;0.50;;;13.90;99.90;;;;;;5311159;26;20013;-90
2024/04/13 06:59:37;;;;;;;0.77;0.60;;;14.00;99.90;;;;;;5338744;26;20036;-90
2024/04/13 07:02:06;;;;;;;0.80;0.80;;;14.00;99.90;;;;;;5311845;26;19997;-90
2024/04/13 07:04:41;;;;;;;1.08;0.82;;;14.00;99.90;;;;;;5344623;26;20005;-90
2024/04/13 07:07:08;;;;;;;1.00;0.80;;;14.10;99.90;;;;;;5333747;26;19996;-93
2024/04/13 07:09:36;;;;;;;0.55;0.50;;;14.10;99.90;;;;;;5374511;26;20330;-91
2024/04/13 07:12:04;;;;;;;0.50;0.50;;;14.20;99.90;;;;;;5346961;26;20008;-92
2024/04/13 07:14:36;;;;;;;0.68;0.60;;;14.20;99.90;;;;;;5326294;26;20001;-92
2024/04/13 07:17:07;;;;;;;0.63;0.50;;;14.20;99.90;;;;;;5325173;26;20003;-92
2024/04/13 07:19:36;;;;;;;0.88;0.60;;;14.30;99.90;;;;;;5377386;26;20012;-91
2024/04/13 07:22:03;;;;;;;0.80;0.68;;;14.40;99.90;;;;;;5292701;26;19997;-92
2024/04/13 07:24:30;;;;;;;0.55;0.50;;;14.40;99.90;;;;;;5393553;26;20385;-92
2024/04/13 07:27:04;;;;;;;0.60;0.60;;;14.50;99.90;;;;;;5373769;26;20005;-91
2024/04/13 07:29:32;;;;;;;1.75;0.65;;;14.60;99.90;;;;;;5283175;26;20009;-91
2024/04/13 07:31:59;;;;;;;0.65;0.63;;;14.70;99.90;;;;;;5309949;26;20705;-90
2024/04/13 07:34:26;;;;;;;1.00;0.80;;;14.80;99.90;;;;;;5337212;26;20007;-91
2024/04/13 07:37:02;;;;;;;0.60;0.50;;;14.90;99.90;;;;;;5346720;26;20059;-91
2024/04/13 07:39:29;;;;;;;0.98;0.60;;;15.00;99.90;;;;;;5363585;26;20055;-91
2024/04/13 07:41:56;;;;;;;0.75;0.70;;;15.00;99.90;;;;;;5339074;26;20008;-91
2024/04/13 07:44:26;;;;;;;1.13;0.85;;;15.00;99.90;;;;;;5364358;26;20000;-92
2024/04/13 07:46:54;;;;;;;0.60;0.60;;;15.00;99.90;;;;;;5352321;26;20094;-92
2024/04/13 07:49:21;;;;;;;0.93;0.70;;;15.10;99.90;;;;;;5315925;26;20528;-91
2024/04/13 07:51:49;;;;;;;0.77;0.60;;;15.20;99.90;;;;;;5347754;26;19997;-91
2024/04/13 07:54:16;;;;;;;1.27;0.70;;;15.30;99.90;;;;;;5340406;26;20222;-91
2024/04/13 07:56:52;;;;;;;0.60;0.60;;;15.40;99.90;;;;;;5354678;26;20004;-91
2024/04/13 07:59:19;;;;;;;1.65;0.50;;;15.50;99.90;;;;;;5355331;26;20085;-88
2024/04/13 08:01:47;;;;;;;1.80;0.95;;;15.50;99.90;;;;;;5336790;26;20000;-86
2024/04/13 08:04:14;;;;;;;1.30;0.77;;;15.50;99.90;;;;;;5402185;26;20007;-88
2024/04/13 08:06:42;;;;;;;1.15;0.60;;;15.50;99.90;;;;;;5390687;26;20319;-88
2024/04/13 08:09:10;;;;;;;1.45;0.88;;;15.60;99.90;;;;;;5372465;26;20023;-90
2024/04/13 08:11:38;;;;;;;1.25;0.73;;;15.50;99.90;;;;;;5349994;26;20001;-87
2024/04/13 08:14:08;;;;;;;0.98;0.70;;;15.50;99.90;;;;;;5348061;26;20867;-89
2024/04/13 08:16:45;;;;;;;1.42;0.70;;;15.60;99.90;;;;;;5320033;26;20004;-90
2024/04/13 08:19:13;;;;;;;0.90;0.77;;;15.70;99.90;;;;;;5355745;26;20004;-83
2024/04/13 08:21:43;;;;;;;1.67;1.15;;;15.60;99.90;;;;;;5357911;26;20011;-89
2024/04/13 08:24:11;;;;;;;1.45;1.02;;;15.50;99.90;;;;;;5360022;26;20733;-87
2024/04/13 08:26:38;;;;;;;1.33;1.20;;;15.50;99.90;;;;;;5333312;26;20335;-87
2024/04/13 08:29:05;;;;;;;2.30;1.23;;;15.40;99.90;;;;;;5376888;26;20020;-85
2024/04/13 08:31:34;;;;;;;1.45;0.88;;;15.50;99.90;;;;;;5332480;26;20012;-90
2024/04/13 08:34:01;;;;;;;1.55;1.20;;;15.60;99.90;;;;;;5359517;26;20016;-87
2024/04/13 08:36:28;;;;;;;1.30;1.10;;;15.80;99.90;;;;;;5360115;26;19995;-87
2024/04/13 08:38:56;;;;;;;2.13;1.33;;;15.80;99.90;;;;;;5350246;26;20007;-86
2024/04/13 08:41:44;;;;;;;1.70;1.30;;;16.00;99.90;;;;;;5384173;26;20000;-87
2024/04/13 08:44:11;;;;;;;1.88;1.33;;;16.00;99.90;;;;;;5328060;26;20001;-86
2024/04/13 08:46:42;;;;;;;1.58;1.30;;;16.10;99.90;;;;;;5329742;26;20036;-85
2024/04/13 08:49:10;;;;;;;1.45;1.25;;;16.10;99.90;;;;;;5367168;26;20033;-83
2024/04/13 08:51:39;;;;;;;1.60;1.30;;;16.10;99.90;;;;;;5337695;26;20005;-88
2024/04/13 08:54:07;;;;;;;2.40;1.70;;;16.10;99.90;;;;;;5330911;26;20073;-81
2024/04/13 08:56:36;;;;;;;2.13;1.45;;;16.20;99.90;;;;;;5325305;26;20540;-81
2024/04/13 08:59:06;;;;;;;1.30;1.20;;;16.20;99.90;;;;;;5325973;26;19996;-81
2024/04/13 09:01:33;;;;;;;1.33;1.20;;;16.20;99.90;;;;;;5295384;26;20004;-81
2024/04/13 09:04:01;;;;;;;2.17;1.83;;;16.20;99.90;;;;;;5339185;26;20004;-81
2024/04/13 09:06:28;;;;;;;1.52;1.40;;;16.20;99.90;;;;;;5329882;26;20007;-81
2024/04/13 09:08:55;;;;;;;1.38;1.20;;;16.20;99.90;;;;;;5341600;26;20035;-81
2024/04/13 09:11:23;;;;;;;1.38;1.27;;;16.30;99.90;;;;;;5301446;26;20009;-80
2024/04/13 09:13:50;;;;;;;1.63;1.20;;;16.30;99.90;;;;;;5332865;26;20311;-81
2024/04/13 09:16:17;;;;;;;1.08;0.90;;;16.40;99.90;;;;;;5335106;26;20021;-80
2024/04/13 09:18:45;;;;;;;1.52;1.10;;;16.40;99.90;;;;;;5314438;26;20394;-81
2024/04/13 09:21:12;;;;;;;2.13;1.10;;;16.40;99.90;;;;;;5365840;26;20004;-81
2024/04/13 09:23:39;;;;;;;1.60;1.20;;;16.40;99.90;;;;;;5296642;26;19999;-80
2024/04/13 09:26:06;;;;;;;1.23;1.02;;;16.50;99.90;;;;;;5333934;26;20015;-80
2024/04/13 09:28:46;;;;;;;1.27;1.00;;;16.50;99.90;;;;;;5371606;26;20007;-80
2024/04/13 09:31:13;;;;;;;1.40;1.23;;;16.60;99.90;;;;;;5342596;26;20117;-79
2024/04/13 09:33:52;;;;;;;1.80;1.30;;;16.60;99.90;;;;;;5342959;26;20352;-79
2024/04/13 09:36:26;;;;;;;0.95;0.80;;;16.70;99.90;;;;;;5329698;26;20015;-80
2024/04/13 09:38:55;;;;;;;1.15;0.88;;;16.70;99.90;;;;;;5334345;26;20004;-80
2024/04/13 09:41:23;;;;;;;1.02;0.80;;;16.70;99.90;;;;;;5338329;26;20264;-79
2024/04/13 09:43:53;;;;;;;1.17;0.80;;;16.80;99.90;;;;;;5358949;26;20389;-80
2024/04/13 09:46:20;;;;;;;1.00;0.80;;;16.90;99.90;;;;;;5367462;26;20080;-80
2024/04/13 09:48:47;;;;;;;1.73;0.88;;;17.00;99.90;;;;;;5363363;26;20004;-81
2024/04/13 09:51:14;;;;;;;0.77;0.60;;;17.10;99.90;;;;;;5403329;26;19999;-79
2024/04/13 09:53:41;;;;;;;0.70;0.52;;;17.20;99.90;;;;;;5399830;26;20003;-80
2024/04/13 09:56:10;;;;;;;1.10;0.70;;;17.30;99.90;;;;;;5305202;26;19996;-81
2024/04/13 09:58:37;;;;;;;0.63;0.47;;;17.40;99.90;;;;;;5372729;26;20015;-81
2024/04/13 10:01:04;;;;;;;1.30;0.60;;;17.50;99.90;;;;;;5320732;26;20000;-80
2024/04/13 10:03:32;;;;;;;0.88;0.60;;;17.60;99.90;;;;;;5339987;26;20131;-81
2024/04/13 10:06:00;;;;;;;1.27;0.77;;;17.70;99.90;;;;;;5311735;26;20016;-79
2024/04/13 10:08:29;;;;;;;2.72;1.15;;;17.70;99.90;;;;;;5364781;26;20023;-76
2024/04/13 10:10:56;;;;;;;0.75;0.75;;;17.60;99.90;;;;;;5338511;26;20001;-75
2024/04/13 10:13:38;;;;;;;1.10;0.88;;;17.70;99.90;;;;;;5386517;26;20012;-75
2024/04/13 10:16:05;;;;;;;0.77;0.60;;;17.80;99.90;;;;;;5342908;26;20070;-76
2024/04/13 10:18:32;;;;;;;0.55;0.50;;;17.90;99.90;;;;;;5318032;26;20799;-76
2024/04/13 10:21:03;;;;;;;0.90;0.75;;;18.00;99.90;;;;;;5362804;26;20000;-75
2024/04/13 10:23:43;;;;;;;0.77;0.50;;;18.20;99.90;;;;;;5370458;26;20011;-75
2024/04/13 10:26:09;;;;;;;0.98;0.70;;;18.40;99.90;;;;;;5345764;26;20064;-75
2024/04/13 10:28:37;;;;;;;0.75;0.50;;;18.50;99.90;;;;;;5369620;26;20023;-75
2024/04/13 10:31:04;;;;;;;0.88;0.68;;;18.60;99.90;;;;;;5360880;26;20003;-75
2024/04/13 10:33:32;;;;;;;0.95;0.70;;;18.80;99.90;;;;;;5351292;26;20484;-75
2024/04/13 10:36:05;;;;;;;0.60;0.50;;;18.90;99.90;;;;;;5324762;26;20512;-75
2024/04/13 10:38:33;;;;;;;0.77;0.60;;;19.00;99.90;;;;;;5350494;26;20008;-75
2024/04/13 10:41:01;;;;;;;0.60;0.50;;;19.20;99.90;;;;;;5368452;26;20078;-75
2024/04/13 10:43:28;;;;;;;1.67;0.45;;;19.20;99.90;;;;;;5369257;26;19999;-75
2024/04/13 10:46:00;;;;;;;0.40;0.40;;;19.40;99.90;;;;;;5306810;26;20059;-75
2024/04/13 10:48:28;;;;;;;0.40;0.40;;;19.50;99.90;;;;;;5337879;26;20036;-75
2024/04/13 10:50:56;;;;;;;0.57;0.40;;;19.70;99.90;;;;;;5280909;26;20008;-75
2024/04/13 10:53:25;;;;;;;0.68;0.50;;;19.60;99.90;;;;;;5289573;26;20079;-75
2024/04/13 10:55:52;;;;;;;0.35;0.35;;;19.50;99.90;;;;;;5344712;26;20019;-74
2024/04/13 10:58:19;;;;;;;0.63;0.50;;;19.70;99.90;;;;;;5372511;26;19999;-75
2024/04/13 11:00:49;;;;;;;0.57;0.47;;;19.90;99.90;;;;;;5372532;26;20014;-75
2024/04/13 11:03:16;;;;;;;1.13;0.77;;;19.90;99.90;;;;;;5343962;26;20000;-75
2024/04/13 11:05:46;;;;;;;0.88;0.57;;;19.80;99.90;;;;;;5372200;26;20003;-75
2024/04/13 11:08:13;;;;;;;0.82;0.52;;;19.90;99.90;;;;;;5335738;26;20000;-75
2024/04/13 11:10:42;;;;;;;0.68;0.47;;;20.00;99.90;;;;;;5330082;26;20034;-75
2024/04/13 11:13:09;;;;;;;0.38;0.38;;;20.10;99.90;;;;;;5324459;26;19999;-75
2024/04/13 11:15:36;;;;;;;0.68;0.60;;;20.30;99.90;;;;;;5330371;26;20003;-75
2024/04/13 11:18:03;;;;;;;1.30;0.70;;;20.20;99.90;;;;;;5364987;26;20010;-75
2024/04/13 11:20:31;;;;;;;0.77;0.50;;;20.20;99.90;;;;;;5367274;26;20433;-75
2024/04/13 11:22:58;;;;;;;1.25;0.50;;;20.30;99.90;;;;;;5337510;26;19995;-75
2024/04/13 11:25:25;;;;;;;0.80;0.50;;;20.30;99.90;;;;;;5397108;26;20000;-75
2024/04/13 11:27:52;;;;;;;1.00;0.50;;;20.50;99.90;;;;;;5308219;26;20081;-82
2024/04/13 11:30:19;;;;;;;0.57;0.57;;;20.50;99.90;;;;;;5311219;26;20555;-85
2024/04/13 11:32:47;;;;;;;0.77;0.60;;;20.30;99.90;;;;;;5348893;26;20000;-84
2024/04/13 11:35:17;;;;;;;0.95;0.63;;;20.30;99.90;;;;;;5311004;26;20423;-84
2024/04/13 11:37:55;;;;;;;1.35;0.60;;;20.50;99.90;;;;;;5317315;26;20004;-85
2024/04/13 11:40:21;;;;;;;0.85;0.57;;;20.80;99.90;;;;;;5317284;26;20561;-87
2024/04/13 11:42:49;;;;;;;0.60;0.50;;;21.00;99.90;;;;;;5344998;26;20022;-85
2024/04/13 11:45:21;;;;;;;0.45;0.40;;;21.20;99.90;;;;;;5379536;26;20472;-86
2024/04/13 11:47:50;;;;;;;0.60;0.57;;;21.30;99.90;;;;;;5378444;26;20034;-85
2024/04/13 11:50:17;;;;;;;0.55;0.50;;;21.50;99.90;;;;;;5339279;26;20467;-85
2024/04/13 11:52:45;;;;;;;1.25;0.50;;;21.60;99.90;;;;;;5306949;26;20432;-85
2024/04/13 11:55:13;;;;;;;0.77;0.50;;;21.50;99.90;;;;;;5345829;26;19999;-85
2024/04/13 11:57:47;;;;;;;0.55;0.45;;;21.60;99.90;;;;;;5370432;26;20003;-85
2024/04/13 12:00:15;;;;;;;0.65;0.57;;;21.90;99.90;;;;;;5317936;26;20431;-85
2024/04/13 12:02:46;;;;;;;0.82;0.55;;;22.00;99.90;;;;;;5308295;26;20003;-83
2024/04/13 12:05:14;;;;;;;0.70;0.57;;;21.80;99.90;;;;;;5341375;26;20447;-83
2024/04/13 12:07:43;;;;;;;0.60;0.50;;;21.80;99.90;;;;;;5341187;26;20818;-84
2024/04/13 12:10:10;;;;;;;0.90;0.70;;;21.80;99.90;;;;;;5363700;26;20004;-84
2024/04/13 12:12:37;;;;;;;1.15;0.68;;;22.10;99.90;;;;;;5344433;26;20004;-84
2024/04/13 12:15:05;;;;;;;0.90;0.68;;;22.20;99.90;;;;;;5365862;26;20114;-85
2024/04/13 12:17:33;;;;;;;0.82;0.57;;;22.10;99.90;;;;;;5356978;26;20004;-85
2024/04/13 12:20:00;;;;;;;1.30;0.75;;;22.20;99.90;;;;;;5337487;26;20011;-84
2024/04/13 12:22:28;;;;;;;1.25;0.80;;;22.20;99.90;;;;;;5370648;26;20714;-85
2024/04/13 12:24:57;;;;;;;0.47;0.40;;;22.40;99.90;;;;;;5294578;26;20077;-84
2024/04/13 12:27:24;;;;;;;0.47;0.43;;;22.60;99.90;;;;;;5312664;26;20601;-85
2024/04/13 12:29:51;;;;;;;0.75;0.63;;;22.70;99.90;;;;;;5280328;26;20602;-85
2024/04/13 12:32:18;;;;;;;0.63;0.60;;;23.20;99.90;;;;;;5307642;26;20328;-84
2024/04/13 12:34:47;;;;;;;0.85;0.40;;;23.60;99.90;;;;;;5329467;26;20082;-82
2024/04/13 12:37:15;;;;;;;0.77;0.60;;;23.70;99.90;;;;;;5330799;26;20088;-84
2024/04/13 12:39:44;;;;;;;0.95;0.50;;;23.70;99.90;;;;;;5339599;26;20051;-85
2024/04/13 12:42:13;;;;;;;0.80;0.50;;;24.10;99.90;;;;;;5368728;26;20362;-85
2024/04/13 12:44:41;;;;;;;0.70;0.40;;;24.00;99.90;;;;;;5277618;26;20020;-83
2024/04/13 12:47:09;;;;;;;0.30;0.30;;;24.10;99.90;;;;;;5366996;26;20010;-84
2024/04/13 12:49:40;;;;;;;0.50;0.40;;;24.30;99.90;;;;;;5345118;26;20110;-84
2024/04/13 12:52:09;;;;;;;0.65;0.50;;;24.40;99.90;;;;;;5401754;26;20011;-83
2024/04/13 12:54:36;;;;;;;0.63;0.50;;;24.40;99.90;;;;;;5356592;26;20000;-83